Canadian Cyclist Cervelo S2 24-7 1 - March 29
   Follow us on Twitter
 
Find us on Facebook
 
Wheels of Bloor - March 7
 
ACS Apollo Bikes - November 19
 
Williams Cycling March 28
 
IMBA Canada - Dec 14
 
Share the Road - Dec 14
 


 

 

 
OGC Giro Factor CC2 - April 7
 

Daily News


 

August 31/02 11:15 am - MTB World Championships: Elite Men's & Women's DH Complete Results


Posted by Editoress on 08/31/02
 

Mountain Bike World Championship Kaprun Austria
Courtesy Tissot

Elite Women

1. CHAUSSON, Anne Caroline (FRA) 5:45.58
2. GRIFFITHS, Fionn (GBR) 5:52.18 (at 6.6)
3. GIOVE, Missy (USA) 5:56.14 (+ 10.56)
4. MOSELEY, Tracy (GBR) 6:00.19 (+ 14.61)
5. JONNIER, Sabrina (FRA) 6:00.35 (+ 14.77)
6. SANER, Marielle (SUI) 6:01.26 (+ 15.68)
7. LE CAER, Nolvenn (FRA) 6:08.05 (+ 22.47)
8. MUXLOW, Tai Lee (AUS) 6:09.07 (+ 23.49)
9. QUIN, Vanessa (NZL) 6:09.44 (+ 23.86)
10. STIEGER, Sarah (SUI) 6:10.92 (+ 25.34)
11. STREB, Marla (USA) 6:11.40 (+ 25.82)
12. GROS, Celine (FRA) 6:12.86 (+ 27.28)
13. SHER, Lisa (USA) 6:13.07 (+ 27.49)
14. THEVOZ, Amelie (SUI) 6:13.52 (+ 27.94)
15. BERNHARD, Petra (AUT) 6:15.42 (+ 29.84)
16. PRUITT, Kathy (USA) 6:19.44 (+ 33.86)
17. SUEMASA, Mio (JPN) 6:21.34 (+ 35.76)
18. BEERTEN, Anneke (NED) 6:26.02 (+ 40.44)
19. WALKER, Sandra (SUI) 6:30.16 (+ 44.58)
20. BUHL, Melissa (USA) 6:31.02 (+ 45.44)
21. GASKELL, Helen (GBR) 6:31.58 (+ 46.00)
22. MOLCIK, Anita (AUT) 6:37.14 (+ 51.56)
23. BLAS OTONDO, Miriam (ESP) 6:37.86 (+ 52.28)
24. DUMERESQ, Michelle (CAN) 6:40.28 (+ 54.70)
25. IRVING, Maxine (GBR) 6:43.83 (+ 58.25)
26. MASUDA, Mami (JPN) 6:46.75 (+1:01.17)
27. FITZGERALD, Talitha (AUS) 6:51.45 (+1:05.87)
28. ALLEN, Sylvie (CAN) 6:54.35 (+1:08.77)
29. SISKOVA, Katarina (SVK) 6:58.34 (+1:12.76)
30. KISS, Dalma (HUN) 7:02.82 (+1:17.24)
31. BUCHAR, Claire (CAN) 7:09.35 (+1:23.77)
32. PULPANOVA, Bohdana (CZE) 7:10.04 (+1:24.46)
33. MORRIS, Sheila (CAN) 7:23.79 (+1:38.21)
34. GRANZOW, Sonja (GER) 7:24.60 (+1:39.02)
35. BOSKOVA, Helena (SVK) 7:38.32 (+1:52.74)
36. JOHNSON, Cassidy (CAN) 7:40.49 (+1:54.91)
LAWYER, April (USA) DNF
JERENKO, Anja (GER) DNS
LEIGH, Jo (GBR) DNS


Elite Men
1. VOUILLOZ, Nicolas (FRA) 5:08.53
2. PEAT, Steve (GBR) 5:09.07 (at 0.54)
3. KOVARIK, Chris (AUS) 5:13.88 (5.35)
4. GRACIA, Cedric (FRA) 5:14.50 (5.97)
5. WADDELL, John (AUS) 5:17.22 (8.69)
6. PASCAL, Mickael (FRA) 5:17.41 (8.88)
7. SAIZ CASTANE, Oscar (ESP) 5:17.84 (9.31)
8. RENNIE, Nathan (AUS) 5:17.93 (9.4)
9. MISSER VILASECA, Tomas (ESP) 5:18.29 (9.76)
10. HANNAH, Mick (AUS) 5:18.34 (9.81)
11. KIRKCALDIE, John (NZL) 5:19.38 (+ 10.85)
12. OULEGO MORENO, Ivan (ESP) 5:19.46 (+ 10.93)
13. CARRICK-ANDERSON, Crawford (GBR) 5:20.64 (+ 12.11)
14. LAGNEAU, Cyril (FRA) 5:21.93 (+ 13.40)
15. DE BEVER, Bas (NED) 5:22.85 (+ 14.32)
16. KLAUSSMANN, Markus (GER) 5:24.48 (+ 15.95)
17. ADAMS, Dustin (CAN) 5:25.32 (+ 16.79)
18. VAZQUEZ LOPEZ, David (ESP) 5:25.39 (+ 16.86)
19. HERIN, Corrado (ITA) 5:25.81 (+ 17.28)
20. CALUORI, Claudio (SUI) 5:26.07 (+ 17.54)
21. SCHNEIDER, Frank (GER) 5:26.08 (+ 17.55)
22. MCCARROLL, Sean (AUS) 5:26.67 (+ 18.14)
22. GUARDIA PASCUAL, Bernat (ESP) 5:26.67 (+ 18.14)
24. CARTER, Eric (USA) 5:27.28 (+ 18.75)
25. WARNER, Rob (GBR) 5:28.44 (+ 19.91)
26. POLC, Filip (SVK) 5:28.52 (+ 19.99)
27. ROJO VIDAL, Cesar (ESP) 5:29.14 (+ 20.61)
28. LONGDEN, William (GBR) 5:29.73 (+ 21.20)
29. RYSER, Thomas (SUI) 5:29.79 (+ 21.26)
30. ZANCHI, Bruno (ITA) 5:30.49 (+ 21.96)
31. MERMOUD, Damien (SUI) 5:30.83 (+ 22.30)
32. VAGNER, Adam (CZE) 5:30.87 (+ 22.34)
33. WILDHABER, Rene (SUI) 5:30.88 (+ 22.35)
34. MAROSI, Michal (CZE) 5:32.64 (+ 24.11)
35. ATHERTON, Dan (GBR) 5:34.27 (+ 25.74)
36. BERCHTOLD, Markolf (BRA) 5:34.68 (+ 26.15)
37. ANTIC, Nino Mladen (CRO) 5:35.40 (+ 26.87)
38. POOMANS, Julien (FRA) 5:35.67 (+ 27.14)
39. TSCHUGG, Guido (GER) 5:36.14 (+ 27.61)
40. THOLEN, Gert (NED) 5:36.51 (+ 27.98)
41. STEFFEN, Andreas (SUI) 5:37.36 (+ 28.83)
42. GRAVES, Jared (AUS) 5:38.31 (+ 29.78)
43. IDEGAWA, Naoki (JPN) 5:40.19 (+ 31.66)
44. PETSCHENIG, Markus (AUT) 5:41.13 (+ 32.60)
45. O'BRIEN, Glyn (IRL) 5:41.34 (+ 32.81)
46. ROCKWELL, Myles (USA) 5:42.85 (+ 34.32)
47. JODKO, Maciej (POL) 5:42.94 (+ 34.41)
48. ZIELINSKI, Grzegorz (POL) 5:42.99 (+ 34.46)
49. SKOLINS, Zigmars (LAT) 5:43.67 (+ 35.14)
50. GOELLES, Michael (AUT) 5:44.64 (+ 36.11)
51. LANCASTER, Richard (USA) 5:44.76 (+ 36.23)
52. LAURIN, Mathieu (CAN) 5:44.96 (+ 36.43)
53. ZBINDEN, Samuel (SUI) 5:45.88 (+ 37.35)
54. VINK, Nico (BEL) 5:46.23 (+ 37.70)
55. JAHNEL, Ruediger (AUT) 5:46.73 (+ 38.20)
56. SLIWKA, Michal (POL) 5:48.18 (+ 39.65)
57. STANDER, Duane (RSA) 5:49.04 (+ 40.51)
58. HYNCICA, Vlastimil (CZE) 5:50.07 (+ 41.54)
59. JOHNSEN, Espen (NOR) 5:50.28 (+ 41.75)
60. ROSS, Colin (IRL) 5:50.46 (+ 41.93)
61. HAAS, Matthias (AUT) 5:50.80 (+ 42.27)
62. YOONG, Andrew (IRL) 5:51.02 (+ 42.49)
63. PORTER, Trevor (CAN) 5:52.22 (+ 43.69)
64. UCHIJIMA, Ryo (JPN) 5:52.52 (+ 43.99)
65. HANSEN, Trond (NOR) 5:52.69 (+ 44.16)
66. VAN VALKENHOEF, Koen (NED) 5:53.52 (+ 44.99)
67. SYRZIYSTIE, Szymon (POL) 5:53.58 (+ 45.05)
68. LAWLOR, John (IRL) 5:53.67 (+ 45.14)
69. MALINEN, Visa (FIN) 5:53.84 (+ 45.31)
70. LENSSENS, Kristof (BEL) 5:53.90 (+ 45.37)
71. FIDALGO, Marco (POR) 5:56.00 (+ 47.47)
72. HUGHES, Stuart (GBR) 5:59.42 (+ 50.89)
73. KEPPLER, Shaun (RSA) 6:00.02 (+ 51.49)
74. JONES, Mike (CAN) 6:00.50 (+ 51.97)
75. JAMNIK, Janez (SLO) 6:00.96 (+ 52.43)
76. VAN DE HATERD, Wilfred (NED) 6:02.73 (+ 54.20)
77. GULYAS, Mihaly (HUN) 6:03.43 (+ 54.90)
78. MIETTINEN, Kalle (FIN) 6:03.96 (+ 55.43)
79. LYON, Brant (CAN) 6:04.86 (+ 56.33)
80. MARUYAMA, Hiroki (JPN) 6:05.07 (+ 56.54)
81. ECHEVERRIA, Diego (CHI) 6:09.54 (+1:01.01)
82. MARTINSCHITZ, Walter (AUT) 6:10.10 (+1:01.57)
83. CEMAN, Stefan (SVK) 6:11.45 (+1:02.92)
84. KOIVISTO, Juhana (FIN) 6:11.66 (+1:03.13)
85. CERVENKA, Michal (CZE) 6:16.31 (+1:07.78)
86. RADOSLAV, Kuldjiev (BUL) 6:29.62 (+1:21.09)
87. VORONIN, Oleg (RUS) 6:31.44 (+1:22.91)
88. VOREIS, Kirt (USA) 6:33.51 (+1:24.98)
89. HALASZ, Krisztian (HUN) 6:34.67 (+1:26.14)
90. OSIS, Gundars (LAT) 6:37.87 (+1:29.34)
91. PUIG, Camilo (CHI) 6:41.38 (+1:32.85)
92. SAMLIK, Laur (EST) 6:44.66 (+1:36.13)
93. HILBERT, Max (LUX) 6:47.30 (+1:38.77)
94. STANILA, George (ROU) 6:59.93 (+1:51.40)
95. MAAS, Frank (LUX) 7:11.39 (+2:02.86)
96. STOICA, Adrian (ROU) 7:14.32 (+2:05.79)
97. TEPPO, Viljar (EST) 7:23.17 (+2:14.64)
98. NIKOLAY, Titev (BUL) 7:24.92 (+2:16.39)
PENDREL, Geoff (CAN) DSQ
GREK, Artiom (RUS) DSQ
SLIVNIK, Ctr-Bill (SLO) DNF
DAL FITTO, Enrico (ITA) DNF
CILLIK, Filip (SVK) DNF
VASQUEZ CID, Sebastian (CHI) DNF
DUARTE, Nuno (POR) DNS
TUUNAINEN, Aku (FIN) DNS

 


Return to Canadian Cyclist homepage | Back to Top
D'Ornellas (+4767) - July 20
 
Norco Tactic - April 1
 

 
BikeSports - November 17
 

 


 
Dundas Speed Shop - Jan 11 (+524)
 
  


 
 © Copyright 1998-2014 Canadian Cyclist. All rights reserved.  Privacy Policy | Contact | Subscribe to RSS Feed  | Login